createdAt,value
2023-05-22T00:00:54.988Z,25.87
2023-05-22T00:03:57.614Z,23.20
2023-05-22T00:07:00.371Z,18.00
2023-05-22T00:10:07.307Z,24.40
2023-05-22T00:13:10.042Z,19.08
2023-05-22T00:16:12.617Z,22.97
2023-05-22T00:19:19.746Z,22.20
2023-05-22T00:22:24.994Z,22.15
2023-05-22T00:25:27.578Z,25.50
2023-05-22T00:28:30.302Z,23.85
2023-05-22T00:31:32.990Z,22.17
2023-05-22T00:34:35.687Z,21.50
2023-05-22T00:37:38.391Z,20.83
2023-05-22T00:40:41.324Z,23.05
2023-05-22T00:43:45.666Z,18.92
2023-05-22T00:46:48.392Z,18.70
2023-05-22T00:49:54.107Z,23.70
2023-05-22T00:52:57.051Z,21.42
2023-05-22T00:56:00.143Z,22.25
2023-05-22T00:59:03.046Z,21.10
2023-05-22T01:02:05.729Z,23.83
2023-05-22T01:05:11.306Z,25.60
2023-05-22T01:08:18.804Z,21.83
2023-05-22T01:11:37.895Z,21.92
2023-05-22T01:14:49.196Z,23.77
2023-05-22T01:18:30.414Z,22.60
2023-05-22T01:21:47.392Z,27.53
2023-05-22T01:25:12.212Z,27.52
2023-05-22T01:28:48.781Z,24.58
2023-05-22T01:31:52.913Z,28.17
2023-05-22T01:34:59.629Z,29.23
2023-05-22T01:38:15.945Z,25.37
2023-05-22T01:41:18.798Z,23.38
2023-05-22T01:44:21.543Z,23.35
2023-05-22T01:47:30.303Z,25.83
2023-05-22T01:50:33.570Z,23.10
2023-05-22T01:54:07.686Z,26.67
2023-05-22T01:57:18.917Z,25.15
2023-05-22T02:00:25.004Z,25.00
2023-05-22T02:03:34.152Z,25.33
2023-05-22T02:06:39.868Z,23.10
2023-05-22T02:09:48.644Z,23.27
2023-05-22T02:12:51.778Z,26.70
2023-05-22T02:15:58.626Z,24.05
2023-05-22T02:19:08.018Z,25.38
2023-05-22T02:22:13.914Z,26.80
2023-05-22T02:25:17.715Z,26.67
2023-05-22T02:28:21.867Z,29.98
2023-05-22T02:31:24.596Z,27.45
2023-05-22T02:34:27.808Z,28.08
2023-05-22T02:37:30.608Z,29.73
2023-05-22T02:40:34.985Z,26.60
2023-05-22T02:43:40.816Z,30.10
2023-05-22T02:46:45.789Z,27.38
2023-05-22T02:49:48.433Z,26.35
2023-05-22T02:52:53.565Z,28.97
2023-05-22T02:55:59.053Z,28.00
2023-05-22T02:59:01.727Z,24.40
2023-05-22T03:02:13.518Z,30.98
2023-05-22T03:05:19.192Z,34.20
2023-05-22T03:08:21.804Z,30.80
2023-05-22T03:11:24.555Z,31.07
2023-05-22T03:14:27.443Z,29.02
2023-05-22T03:17:32.786Z,30.20
2023-05-22T03:20:35.439Z,29.05
2023-05-22T03:23:38.215Z,29.80
2023-05-22T03:26:42.029Z,29.40
2023-05-22T03:29:49.339Z,28.73
2023-05-22T03:32:57.732Z,36.70
2023-05-22T03:36:03.740Z,40.67
2023-05-22T03:39:06.551Z,38.93
2023-05-22T03:42:14.217Z,38.60
2023-05-22T03:45:17.091Z,40.28
2023-05-22T03:48:21.072Z,32.58
2023-05-22T03:51:23.891Z,34.65
2023-05-22T03:54:26.555Z,42.63
2023-05-22T03:57:34.439Z,29.63
2023-05-22T04:00:38.747Z,32.30
2023-05-22T04:03:41.664Z,30.20
2023-05-22T04:06:47.071Z,31.42
2023-05-22T04:09:49.658Z,29.57
2023-05-22T04:12:52.340Z,29.10
2023-05-22T04:15:58.199Z,29.67
2023-05-22T04:19:04.483Z,28.45
2023-05-22T04:22:07.578Z,30.17
2023-05-22T04:25:10.510Z,28.27
2023-05-22T04:28:13.219Z,31.50
2023-05-22T04:31:18.626Z,26.60
2023-05-22T04:34:24.681Z,26.40
2023-05-22T04:37:28.860Z,32.25
2023-05-22T04:40:33.911Z,31.70
2023-05-22T04:43:38.880Z,29.83
2023-05-22T04:46:46.214Z,25.58
2023-05-22T04:49:49.101Z,25.42
2023-05-22T04:52:51.851Z,25.55
2023-05-22T04:55:55.095Z,27.57
2023-05-22T04:58:58.784Z,24.47
2023-05-22T05:02:01.499Z,28.25
2023-05-22T05:05:04.487Z,24.83
2023-05-22T05:08:07.116Z,21.75
2023-05-22T05:11:09.838Z,20.60
2023-05-22T05:14:12.576Z,20.97
2023-05-22T05:17:15.762Z,21.38
2023-05-22T05:20:18.668Z,19.95
2023-05-22T05:23:22.514Z,17.25
2023-05-22T05:26:25.310Z,13.73
2023-05-22T05:29:53.068Z,15.93
2023-05-22T05:33:03.359Z,21.13
2023-05-22T05:36:17.235Z,13.25
2023-05-22T05:39:21.574Z,12.02
2023-05-22T05:42:24.448Z,10.87
2023-05-22T05:45:28.502Z,11.70
2023-05-22T05:48:32.470Z,14.00
2023-05-22T05:51:36.155Z,11.32
2023-05-22T05:54:46.618Z,11.10
2023-05-22T05:57:57.364Z,12.03
2023-05-22T06:01:12.034Z,21.40
2023-05-22T06:04:15.357Z,12.32
2023-05-22T06:07:21.171Z,14.38
2023-05-22T06:10:27.249Z,10.25
2023-05-22T06:13:37.577Z,10.13
2023-05-22T06:16:42.807Z,10.77
2023-05-22T06:19:45.766Z,14.77
2023-05-22T06:22:53.799Z,8.32
2023-05-22T06:25:56.628Z,10.10
2023-05-22T06:29:00.991Z,10.27
2023-05-22T06:32:06.596Z,12.83
2023-05-22T06:35:10.318Z,14.35
2023-05-22T06:38:13.114Z,9.85
2023-05-22T06:41:17.587Z,10.48
2023-05-22T06:44:21.004Z,14.17
2023-05-22T06:47:29.661Z,13.60
2023-05-22T06:50:32.928Z,11.60
2023-05-22T06:53:35.796Z,11.90
2023-05-22T06:56:38.729Z,8.98
2023-05-22T06:59:47.904Z,13.07
2023-05-22T07:03:09.660Z,10.27
2023-05-22T07:06:50.946Z,9.32
2023-05-22T07:09:54.772Z,13.02
2023-05-22T07:12:57.783Z,10.38
2023-05-22T07:16:01.468Z,13.80
2023-05-22T07:19:04.257Z,11.57
2023-05-22T07:22:07.193Z,10.57
2023-05-22T07:25:12.586Z,12.00
2023-05-22T07:28:22.638Z,9.77
2023-05-22T07:31:39.235Z,11.87
2023-05-22T07:34:42.575Z,11.20
2023-05-22T07:37:45.545Z,10.55
2023-05-22T07:40:48.527Z,11.68
2023-05-22T07:43:51.425Z,9.95
2023-05-22T07:46:58.304Z,11.97
2023-05-22T07:50:05.255Z,7.90
2023-05-22T07:53:11.769Z,9.90
2023-05-22T07:56:17.933Z,10.65
2023-05-22T07:59:22.169Z,10.15
2023-05-22T08:02:26.198Z,10.47
2023-05-22T08:05:29.007Z,10.30
2023-05-22T08:08:33.892Z,10.23
2023-05-22T08:11:39.684Z,10.48
2023-05-22T08:14:42.862Z,9.77
2023-05-22T08:17:46.405Z,10.27
2023-05-22T08:20:49.294Z,10.67
2023-05-22T08:23:52.160Z,10.13
2023-05-22T08:26:57.258Z,8.20
2023-05-22T08:30:00.443Z,13.48
2023-05-22T08:33:03.349Z,9.30
2023-05-22T08:36:08.437Z,9.67
2023-05-22T08:39:12.503Z,10.93
2023-05-22T08:42:15.199Z,8.82
2023-05-22T08:45:19.965Z,7.78
2023-05-22T08:48:23.651Z,8.67
2023-05-22T08:51:29.402Z,8.60
2023-05-22T08:54:33.869Z,10.68
2023-05-22T08:57:37.229Z,9.07
2023-05-22T09:00:41.119Z,8.48
2023-05-22T09:03:49.384Z,7.13
2023-05-22T09:06:53.200Z,8.37
2023-05-22T09:09:56.700Z,10.95
2023-05-22T09:13:04.530Z,8.55
2023-05-22T09:16:13.153Z,7.97
2023-05-22T09:19:16.303Z,8.60
2023-05-22T09:22:20.934Z,10.70
2023-05-22T09:25:26.690Z,11.88
2023-05-22T09:28:34.782Z,8.07
2023-05-22T09:31:44.284Z,10.00
2023-05-22T09:34:48.906Z,9.23
2023-05-22T09:37:52.860Z,8.47
2023-05-22T09:40:56.200Z,8.00
2023-05-22T09:44:09.889Z,8.60
2023-05-22T09:47:12.794Z,10.00
2023-05-22T09:50:15.671Z,9.93
2023-05-22T09:53:19.516Z,43.23
2023-05-22T09:56:34.777Z,13.02
2023-05-22T09:59:43.140Z,9.05
2023-05-22T10:02:47.860Z,129.82
2023-05-22T10:05:52.714Z,21.47
2023-05-22T10:09:02.362Z,18.37
2023-05-22T10:12:07.478Z,12.30
2023-05-22T10:15:13.975Z,9.13
2023-05-22T10:18:17.625Z,8.05
2023-05-22T10:21:21.378Z,7.23
2023-05-22T10:24:25.408Z,9.27
2023-05-22T10:27:28.332Z,8.38
2023-05-22T10:30:31.484Z,8.80
2023-05-22T10:34:02.768Z,10.27
2023-05-22T10:37:18.862Z,7.97
2023-05-22T10:40:30.504Z,8.23
2023-05-22T10:43:33.606Z,7.72
2023-05-22T10:46:36.836Z,10.23
2023-05-22T10:49:49.810Z,8.38
2023-05-22T10:53:12.614Z,8.80
2023-05-22T10:56:16.700Z,6.97
2023-05-22T10:59:34.025Z,8.00
2023-05-22T11:02:45.326Z,11.73
2023-05-22T11:05:54.672Z,8.13
2023-05-22T11:08:57.978Z,8.00
2023-05-22T11:12:28.690Z,10.63
2023-05-22T11:15:32.678Z,11.85
2023-05-22T11:18:35.848Z,8.50
2023-05-22T11:21:46.727Z,11.25
2023-05-22T11:24:49.673Z,8.17
2023-05-22T11:27:56.697Z,7.90
2023-05-22T11:31:00.291Z,8.30
2023-05-22T11:34:03.704Z,9.10
2023-05-22T11:37:06.629Z,8.95
2023-05-22T11:40:10.386Z,9.60
2023-05-22T11:43:13.469Z,9.40
2023-05-22T11:46:16.535Z,8.57
2023-05-22T11:49:24.085Z,8.02
2023-05-22T11:52:31.814Z,7.72
2023-05-22T11:55:36.064Z,6.90
2023-05-22T11:58:39.000Z,7.53
2023-05-22T12:01:42.121Z,8.68
2023-05-22T12:04:45.274Z,9.43
2023-05-22T12:07:54.020Z,8.95
2023-05-22T12:11:28.096Z,8.80
2023-05-22T12:14:31.901Z,9.57
2023-05-22T12:17:37.260Z,32.70
2023-05-22T12:20:54.556Z,7.88
2023-05-22T12:23:57.528Z,8.35
2023-05-22T12:27:00.304Z,10.70
2023-05-22T12:30:10.788Z,7.73
2023-05-22T12:33:17.343Z,8.38
2023-05-22T12:36:20.382Z,9.40
2023-05-22T12:39:23.713Z,10.52
2023-05-22T12:42:30.070Z,9.27
2023-05-22T12:45:33.236Z,8.90
2023-05-22T12:48:36.067Z,8.45
2023-05-22T12:51:45.152Z,8.63
2023-05-22T12:54:48.294Z,8.23
2023-05-22T12:58:01.917Z,9.53
2023-05-22T13:01:06.327Z,7.17
2023-05-22T13:04:18.307Z,11.05
2023-05-22T13:07:21.178Z,8.70
2023-05-22T13:10:24.157Z,11.73
2023-05-22T13:13:27.229Z,18.37
2023-05-22T13:16:31.255Z,10.23
2023-05-22T13:19:34.682Z,8.18
2023-05-22T13:22:37.778Z,9.75
2023-05-22T13:25:40.702Z,10.38
2023-05-22T13:28:43.479Z,7.83
2023-05-22T13:31:46.494Z,9.30
2023-05-22T13:34:49.202Z,7.65
2023-05-22T13:37:52.390Z,7.63
2023-05-22T13:40:55.144Z,11.25
2023-05-22T13:43:57.783Z,7.83
2023-05-22T13:47:01.050Z,9.40
2023-05-22T13:50:03.918Z,8.05
2023-05-22T13:53:06.522Z,9.13
2023-05-22T13:56:09.179Z,7.30
2023-05-22T13:59:11.797Z,9.30
2023-05-22T14:02:14.505Z,8.07
2023-05-22T14:05:17.120Z,8.07
2023-05-22T14:08:19.815Z,8.90
2023-05-22T14:11:22.560Z,8.95
2023-05-22T14:14:25.583Z,8.27
2023-05-22T14:17:30.803Z,9.20
2023-05-22T14:20:33.551Z,8.85
2023-05-22T14:23:36.124Z,8.93
2023-05-22T14:26:39.303Z,9.13
2023-05-22T14:29:42.100Z,8.53
2023-05-22T14:32:46.097Z,7.80
2023-05-22T14:35:48.893Z,10.50
2023-05-22T14:38:55.422Z,8.50
2023-05-22T14:41:58.036Z,9.43
2023-05-22T14:45:00.843Z,9.10
2023-05-22T14:48:03.573Z,8.23
2023-05-22T14:51:06.361Z,9.55
2023-05-22T14:54:13.444Z,9.38
2023-05-22T14:57:19.456Z,9.95
2023-05-22T15:00:22.250Z,7.37
2023-05-22T15:03:25.004Z,8.23
2023-05-22T15:06:27.735Z,8.98
2023-05-22T15:09:31.135Z,7.65
2023-05-22T15:12:33.764Z,7.78
2023-05-22T15:15:36.352Z,9.60
2023-05-22T15:18:39.108Z,8.43
2023-05-22T15:21:42.341Z,9.00
2023-05-22T15:24:47.426Z,9.27
2023-05-22T15:27:49.979Z,8.15
2023-05-22T15:30:52.707Z,10.10
2023-05-22T15:33:55.716Z,7.13
2023-05-22T15:36:58.328Z,9.15
2023-05-22T15:40:02.036Z,8.02
2023-05-22T15:43:05.078Z,9.20
2023-05-22T15:46:07.805Z,9.30
2023-05-22T15:49:10.691Z,7.83
2023-05-22T15:52:13.396Z,6.75
2023-05-22T15:55:16.114Z,9.98
2023-05-22T15:58:20.979Z,8.98
2023-05-22T16:01:26.094Z,7.47
2023-05-22T16:04:28.918Z,8.03
2023-05-22T16:07:31.649Z,8.07
2023-05-22T16:10:34.641Z,7.80
2023-05-22T16:13:37.298Z,8.57
2023-05-22T16:16:39.965Z,13.00
2023-05-22T16:19:43.113Z,7.37
2023-05-22T16:22:48.916Z,8.32
2023-05-22T16:25:51.914Z,9.02
2023-05-22T16:28:57.412Z,8.80
2023-05-22T16:32:00.305Z,9.83
2023-05-22T16:35:03.127Z,8.77
2023-05-22T16:38:07.156Z,11.23
2023-05-22T16:41:09.756Z,10.38
2023-05-22T16:44:12.419Z,9.38
2023-05-22T16:47:15.142Z,10.50
2023-05-22T16:50:17.923Z,7.83
2023-05-22T16:53:20.672Z,9.48
2023-05-22T16:56:23.240Z,8.70
2023-05-22T16:59:26.077Z,10.15
2023-05-22T17:02:29.087Z,11.57
2023-05-22T17:05:31.842Z,8.17
2023-05-22T17:08:34.566Z,10.65
2023-05-22T17:11:37.657Z,9.55
2023-05-22T17:14:40.389Z,7.55
2023-05-22T17:17:42.985Z,10.00
2023-05-22T17:20:49.525Z,9.83
2023-05-22T17:23:52.231Z,7.47
2023-05-22T17:26:54.896Z,12.57
2023-05-22T17:29:57.493Z,7.78
2023-05-22T17:33:00.307Z,11.63
2023-05-22T17:36:02.977Z,8.57
2023-05-22T17:39:05.534Z,9.18
2023-05-22T17:42:08.196Z,11.85
2023-05-22T17:45:10.925Z,9.73
2023-05-22T17:48:14.783Z,8.53
2023-05-22T17:51:17.602Z,10.20
2023-05-22T17:54:20.219Z,10.93
2023-05-22T17:57:22.792Z,8.00
2023-05-22T18:00:25.458Z,13.10
2023-05-22T18:03:28.224Z,8.63
2023-05-22T18:06:31.410Z,12.37
2023-05-22T18:09:34.180Z,10.55
2023-05-22T18:12:38.298Z,8.32
2023-05-22T18:15:41.667Z,9.52
2023-05-22T18:18:45.289Z,13.97
2023-05-22T18:21:47.947Z,9.50
2023-05-22T18:24:51.826Z,11.30
2023-05-22T18:27:55.595Z,11.00
2023-05-22T18:30:58.355Z,12.55
2023-05-22T18:34:00.996Z,15.30
2023-05-22T18:37:03.978Z,10.90
2023-05-22T18:40:09.423Z,21.40
2023-05-22T18:43:12.184Z,15.00
2023-05-22T18:46:14.811Z,14.35
2023-05-22T18:49:17.454Z,9.00
2023-05-22T18:52:20.215Z,11.10
2023-05-22T18:55:23.126Z,13.93
2023-05-22T18:58:25.839Z,10.10
2023-05-22T19:01:28.626Z,16.02
2023-05-22T19:04:31.424Z,18.37
2023-05-22T19:07:34.032Z,14.40
2023-05-22T19:10:36.662Z,13.45
2023-05-22T19:13:40.747Z,11.20
2023-05-22T19:16:44.166Z,9.57
2023-05-22T19:19:46.940Z,11.00
2023-05-22T19:22:51.006Z,12.73
2023-05-22T19:25:53.652Z,9.50
2023-05-22T19:28:59.441Z,10.95
2023-05-22T19:32:02.316Z,16.35
2023-05-22T19:35:05.241Z,17.00
2023-05-22T19:38:07.915Z,19.67
2023-05-22T19:41:10.529Z,15.27
2023-05-22T19:44:13.314Z,15.40
2023-05-22T19:47:16.065Z,17.35
2023-05-22T19:50:18.977Z,16.10
2023-05-22T19:53:21.639Z,13.23
2023-05-22T19:56:24.281Z,16.20
2023-05-22T19:59:27.216Z,13.95
2023-05-22T20:02:29.879Z,20.10
2023-05-22T20:05:32.520Z,27.40
2023-05-22T20:08:36.347Z,29.93
2023-05-22T20:11:38.951Z,38.63
2023-05-22T20:14:42.192Z,34.63
2023-05-22T20:17:47.545Z,31.35
2023-05-22T20:21:09.728Z,42.10
2023-05-22T20:24:21.143Z,58.27
2023-05-22T20:27:23.790Z,46.22
2023-05-22T20:30:26.584Z,51.58
2023-05-22T20:33:29.258Z,48.30
2023-05-22T20:36:35.181Z,39.20
2023-05-22T20:39:37.865Z,38.03
2023-05-22T20:42:42.770Z,36.40
2023-05-22T20:45:46.802Z,34.25
2023-05-22T20:48:49.504Z,30.63
2023-05-22T20:51:54.484Z,29.43
2023-05-22T20:54:58.053Z,29.73
2023-05-22T20:58:00.931Z,31.00
2023-05-22T21:01:04.049Z,28.92
2023-05-22T21:04:06.710Z,27.45
2023-05-22T21:07:09.746Z,34.37
2023-05-22T21:10:12.479Z,30.53
2023-05-22T21:13:15.141Z,28.48
2023-05-22T21:16:17.774Z,24.85
2023-05-22T21:19:20.446Z,27.02
2023-05-22T21:22:23.156Z,29.43
2023-05-22T21:25:25.896Z,26.53
2023-05-22T21:28:28.563Z,25.98
2023-05-22T21:31:32.232Z,33.95
2023-05-22T21:34:36.511Z,23.27
2023-05-22T21:37:40.714Z,22.60
2023-05-22T21:40:43.332Z,22.77
2023-05-22T21:43:47.467Z,21.63
2023-05-22T21:46:50.185Z,20.73
2023-05-22T21:49:52.781Z,20.38
2023-05-22T21:52:55.940Z,17.40
2023-05-22T21:55:58.484Z,20.53
2023-05-22T21:59:01.191Z,20.02
2023-05-22T22:02:03.944Z,23.60
2023-05-22T22:05:07.314Z,24.35
2023-05-22T22:08:09.994Z,17.83
2023-05-22T22:11:12.640Z,18.70
2023-05-22T22:14:15.517Z,19.67
2023-05-22T22:17:18.170Z,18.63
2023-05-22T22:20:30.349Z,19.92
2023-05-22T22:23:42.435Z,22.60
2023-05-22T22:26:49.343Z,19.83
2023-05-22T22:29:52.094Z,21.23
2023-05-22T22:32:54.872Z,20.15
2023-05-22T22:35:57.604Z,22.98
2023-05-22T22:39:00.312Z,18.53
2023-05-22T22:42:05.276Z,21.87
2023-05-22T22:45:09.828Z,23.50
2023-05-22T22:48:12.494Z,19.02
2023-05-22T22:51:15.122Z,19.13
2023-05-22T22:54:17.935Z,22.83
2023-05-22T22:57:20.808Z,20.33
2023-05-22T23:00:23.886Z,19.88
2023-05-22T23:03:27.306Z,19.75
2023-05-22T23:06:29.993Z,19.65
2023-05-22T23:09:32.535Z,19.80
2023-05-22T23:12:36.329Z,18.97
2023-05-22T23:15:39.683Z,19.38
2023-05-22T23:18:42.575Z,21.02
2023-05-22T23:21:45.347Z,25.25
2023-05-22T23:24:48.025Z,17.03
2023-05-22T23:27:50.867Z,18.83
2023-05-22T23:30:53.522Z,19.42
2023-05-22T23:33:57.508Z,23.83
2023-05-22T23:37:00.755Z,19.52
2023-05-22T23:40:05.128Z,20.20
2023-05-22T23:43:07.752Z,26.40
2023-05-22T23:46:13.386Z,23.00
2023-05-22T23:49:16.128Z,28.50
2023-05-22T23:52:18.697Z,24.38
2023-05-22T23:55:22.179Z,22.07
2023-05-22T23:58:25.025Z,24.27
